sensor_id;sensor_type;location;lat;lon;timestamp;P1;durP1;ratioP1;P2;durP2;ratioP2
3280;SDS011;1652;51.318;6.202;2023-05-23T00:02:13;22.03;;;13.43;;
3280;SDS011;1652;51.318;6.202;2023-05-23T00:04:42;11.60;;;10.50;;
3280;SDS011;1652;51.318;6.202;2023-05-23T00:07:09;11.70;;;10.57;;
3280;SDS011;1652;51.318;6.202;2023-05-23T00:09:36;12.37;;;9.50;;
3280;SDS011;1652;51.318;6.202;2023-05-23T00:12:03;8.90;;;8.07;;
3280;SDS011;1652;51.318;6.202;2023-05-23T00:14:30;8.50;;;7.70;;
3280;SDS011;1652;51.318;6.202;2023-05-23T00:16:59;7.40;;;6.73;;
3280;SDS011;1652;51.318;6.202;2023-05-23T00:19:30;7.00;;;6.40;;
3280;SDS011;1652;51.318;6.202;2023-05-23T00:22:01;7.13;;;6.67;;
3280;SDS011;1652;51.318;6.202;2023-05-23T00:24:29;6.57;;;6.17;;
3280;SDS011;1652;51.318;6.202;2023-05-23T00:26:56;7.33;;;6.83;;
3280;SDS011;1652;51.318;6.202;2023-05-23T00:29:24;11.33;;;6.63;;
3280;SDS011;1652;51.318;6.202;2023-05-23T00:31:51;7.03;;;6.30;;
3280;SDS011;1652;51.318;6.202;2023-05-23T00:34:18;6.03;;;5.67;;
3280;SDS011;1652;51.318;6.202;2023-05-23T00:36:45;5.27;;;4.97;;
3280;SDS011;1652;51.318;6.202;2023-05-23T00:39:16;5.70;;;5.40;;
3280;SDS011;1652;51.318;6.202;2023-05-23T00:41:49;6.50;;;5.90;;
3280;SDS011;1652;51.318;6.202;2023-05-23T00:44:18;6.40;;;5.40;;
3280;SDS011;1652;51.318;6.202;2023-05-23T00:46:48;9.17;;;6.40;;
3280;SDS011;1652;51.318;6.202;2023-05-23T00:49:19;6.13;;;5.73;;
3280;SDS011;1652;51.318;6.202;2023-05-23T00:51:46;6.53;;;5.97;;
3280;SDS011;1652;51.318;6.202;2023-05-23T00:54:23;7.17;;;6.50;;
3280;SDS011;1652;51.318;6.202;2023-05-23T00:56:52;6.70;;;6.20;;
3280;SDS011;1652;51.318;6.202;2023-05-23T00:59:20;6.30;;;6.00;;
3280;SDS011;1652;51.318;6.202;2023-05-23T01:01:48;7.20;;;6.43;;
3280;SDS011;1652;51.318;6.202;2023-05-23T01:04:16;8.00;;;7.33;;
3280;SDS011;1652;51.318;6.202;2023-05-23T01:06:45;7.93;;;7.23;;
3280;SDS011;1652;51.318;6.202;2023-05-23T01:09:14;8.23;;;7.40;;
3280;SDS011;1652;51.318;6.202;2023-05-23T01:11:44;7.10;;;6.50;;
3280;SDS011;1652;51.318;6.202;2023-05-23T01:14:18;9.60;;;6.87;;
3280;SDS011;1652;51.318;6.202;2023-05-23T01:16:54;8.80;;;7.07;;
3280;SDS011;1652;51.318;6.202;2023-05-23T01:19:36;9.50;;;7.00;;
3280;SDS011;1652;51.318;6.202;2023-05-23T01:22:22;7.10;;;6.60;;
3280;SDS011;1652;51.318;6.202;2023-05-23T01:25:20;9.93;;;7.43;;
3280;SDS011;1652;51.318;6.202;2023-05-23T01:27:59;9.90;;;7.23;;
3280;SDS011;1652;51.318;6.202;2023-05-23T01:30:31;7.70;;;7.10;;
3280;SDS011;1652;51.318;6.202;2023-05-23T01:33:02;7.47;;;6.80;;
3280;SDS011;1652;51.318;6.202;2023-05-23T01:35:30;9.77;;;7.77;;
3280;SDS011;1652;51.318;6.202;2023-05-23T01:37:57;12.20;;;7.17;;
3280;SDS011;1652;51.318;6.202;2023-05-23T01:40:24;8.67;;;6.30;;
3280;SDS011;1652;51.318;6.202;2023-05-23T01:42:52;7.53;;;6.53;;
3280;SDS011;1652;51.318;6.202;2023-05-23T01:45:23;7.00;;;6.40;;
3280;SDS011;1652;51.318;6.202;2023-05-23T01:47:52;7.87;;;6.10;;
3280;SDS011;1652;51.318;6.202;2023-05-23T01:50:21;12.30;;;6.90;;
3280;SDS011;1652;51.318;6.202;2023-05-23T01:52:48;12.77;;;6.43;;
3280;SDS011;1652;51.318;6.202;2023-05-23T01:55:16;11.07;;;8.10;;
3280;SDS011;1652;51.318;6.202;2023-05-23T01:57:52;12.30;;;7.90;;
3280;SDS011;1652;51.318;6.202;2023-05-23T02:00:22;7.93;;;7.40;;
3280;SDS011;1652;51.318;6.202;2023-05-23T02:02:49;10.60;;;7.87;;
3280;SDS011;1652;51.318;6.202;2023-05-23T02:05:16;8.80;;;7.27;;
3280;SDS011;1652;51.318;6.202;2023-05-23T02:07:43;9.20;;;8.30;;
3280;SDS011;1652;51.318;6.202;2023-05-23T02:10:10;8.60;;;7.80;;
3280;SDS011;1652;51.318;6.202;2023-05-23T02:12:37;10.60;;;7.60;;
3280;SDS011;1652;51.318;6.202;2023-05-23T02:17:33;8.97;;;7.90;;
3280;SDS011;1652;51.318;6.202;2023-05-23T02:20:00;8.50;;;7.27;;
3280;SDS011;1652;51.318;6.202;2023-05-23T02:22:27;9.93;;;7.27;;
3280;SDS011;1652;51.318;6.202;2023-05-23T02:24:53;10.00;;;7.67;;
3280;SDS011;1652;51.318;6.202;2023-05-23T02:27:20;9.80;;;7.23;;
3280;SDS011;1652;51.318;6.202;2023-05-23T02:29:47;8.83;;;7.87;;
3280;SDS011;1652;51.318;6.202;2023-05-23T02:32:14;8.03;;;6.77;;
3280;SDS011;1652;51.318;6.202;2023-05-23T02:34:41;7.97;;;7.23;;
3280;SDS011;1652;51.318;6.202;2023-05-23T02:37:12;8.63;;;7.87;;
3280;SDS011;1652;51.318;6.202;2023-05-23T02:39:40;10.90;;;7.57;;
3280;SDS011;1652;51.318;6.202;2023-05-23T02:42:08;9.50;;;7.67;;
3280;SDS011;1652;51.318;6.202;2023-05-23T02:44:35;8.70;;;7.50;;
3280;SDS011;1652;51.318;6.202;2023-05-23T02:47:02;8.33;;;7.60;;
3280;SDS011;1652;51.318;6.202;2023-05-23T02:49:29;16.90;;;8.10;;
3280;SDS011;1652;51.318;6.202;2023-05-23T02:51:55;15.30;;;8.20;;
3280;SDS011;1652;51.318;6.202;2023-05-23T02:54:22;8.27;;;7.43;;
3280;SDS011;1652;51.318;6.202;2023-05-23T02:56:49;8.83;;;7.50;;
3280;SDS011;1652;51.318;6.202;2023-05-23T02:59:17;11.50;;;7.20;;
3280;SDS011;1652;51.318;6.202;2023-05-23T03:01:44;14.20;;;7.60;;
3280;SDS011;1652;51.318;6.202;2023-05-23T03:04:11;9.90;;;6.70;;
3280;SDS011;1652;51.318;6.202;2023-05-23T03:06:39;14.30;;;7.60;;
3280;SDS011;1652;51.318;6.202;2023-05-23T03:09:07;8.80;;;6.93;;
3280;SDS011;1652;51.318;6.202;2023-05-23T03:11:35;7.27;;;6.60;;
3280;SDS011;1652;51.318;6.202;2023-05-23T03:14:02;9.37;;;8.10;;
3280;SDS011;1652;51.318;6.202;2023-05-23T03:16:29;8.27;;;7.43;;
3280;SDS011;1652;51.318;6.202;2023-05-23T03:18:57;18.83;;;8.73;;
3280;SDS011;1652;51.318;6.202;2023-05-23T03:21:24;16.93;;;8.03;;
3280;SDS011;1652;51.318;6.202;2023-05-23T03:23:51;9.17;;;8.00;;
3280;SDS011;1652;51.318;6.202;2023-05-23T03:26:18;14.97;;;8.93;;
3280;SDS011;1652;51.318;6.202;2023-05-23T03:28:45;12.97;;;9.30;;
3280;SDS011;1652;51.318;6.202;2023-05-23T03:31:12;19.23;;;9.40;;
3280;SDS011;1652;51.318;6.202;2023-05-23T03:33:38;10.37;;;8.57;;
3280;SDS011;1652;51.318;6.202;2023-05-23T03:36:05;14.27;;;9.47;;
3280;SDS011;1652;51.318;6.202;2023-05-23T03:38:32;19.87;;;9.90;;
3280;SDS011;1652;51.318;6.202;2023-05-23T03:40:59;9.43;;;8.30;;
3280;SDS011;1652;51.318;6.202;2023-05-23T03:43:26;11.30;;;8.53;;
3280;SDS011;1652;51.318;6.202;2023-05-23T03:45:53;17.07;;;8.80;;
3280;SDS011;1652;51.318;6.202;2023-05-23T03:48:20;11.10;;;7.33;;
3280;SDS011;1652;51.318;6.202;2023-05-23T03:50:47;13.40;;;9.30;;
3280;SDS011;1652;51.318;6.202;2023-05-23T03:53:14;12.73;;;8.87;;
3280;SDS011;1652;51.318;6.202;2023-05-23T03:55:41;13.90;;;9.23;;
3280;SDS011;1652;51.318;6.202;2023-05-23T03:58:08;8.57;;;7.73;;
3280;SDS011;1652;51.318;6.202;2023-05-23T04:00:35;9.77;;;8.23;;
3280;SDS011;1652;51.318;6.202;2023-05-23T04:03:02;11.47;;;9.13;;
3280;SDS011;1652;51.318;6.202;2023-05-23T04:05:30;11.23;;;8.60;;
3280;SDS011;1652;51.318;6.202;2023-05-23T04:07:57;11.67;;;8.73;;
3280;SDS011;1652;51.318;6.202;2023-05-23T04:10:26;17.03;;;9.37;;
3280;SDS011;1652;51.318;6.202;2023-05-23T04:12:53;15.30;;;9.73;;
3280;SDS011;1652;51.318;6.202;2023-05-23T04:15:20;10.23;;;8.40;;
3280;SDS011;1652;51.318;6.202;2023-05-23T04:17:47;12.03;;;9.20;;
3280;SDS011;1652;51.318;6.202;2023-05-23T04:20:14;14.13;;;8.30;;
3280;SDS011;1652;51.318;6.202;2023-05-23T04:22:41;12.87;;;9.03;;
3280;SDS011;1652;51.318;6.202;2023-05-23T04:25:08;17.20;;;9.33;;
3280;SDS011;1652;51.318;6.202;2023-05-23T04:27:35;9.30;;;8.40;;
3280;SDS011;1652;51.318;6.202;2023-05-23T04:30:06;17.00;;;8.50;;
3280;SDS011;1652;51.318;6.202;2023-05-23T04:32:35;12.73;;;9.17;;
3280;SDS011;1652;51.318;6.202;2023-05-23T04:35:03;16.77;;;10.10;;
3280;SDS011;1652;51.318;6.202;2023-05-23T04:37:31;11.70;;;8.37;;
3280;SDS011;1652;51.318;6.202;2023-05-23T04:39:58;12.73;;;9.23;;
3280;SDS011;1652;51.318;6.202;2023-05-23T04:42:25;9.73;;;8.67;;
3280;SDS011;1652;51.318;6.202;2023-05-23T04:44:52;11.93;;;9.57;;
3280;SDS011;1652;51.318;6.202;2023-05-23T04:47:22;15.73;;;10.00;;
3280;SDS011;1652;51.318;6.202;2023-05-23T04:49:50;15.10;;;9.97;;
3280;SDS011;1652;51.318;6.202;2023-05-23T04:52:19;16.83;;;10.33;;
3280;SDS011;1652;51.318;6.202;2023-05-23T04:54:46;14.27;;;9.70;;
3280;SDS011;1652;51.318;6.202;2023-05-23T04:57:14;20.20;;;11.10;;
3280;SDS011;1652;51.318;6.202;2023-05-23T04:59:42;13.20;;;9.50;;
3280;SDS011;1652;51.318;6.202;2023-05-23T05:02:09;18.10;;;10.83;;
3280;SDS011;1652;51.318;6.202;2023-05-23T05:04:36;18.23;;;10.60;;
3280;SDS011;1652;51.318;6.202;2023-05-23T05:07:03;11.80;;;10.07;;
3280;SDS011;1652;51.318;6.202;2023-05-23T05:09:30;12.50;;;9.77;;
3280;SDS011;1652;51.318;6.202;2023-05-23T05:11:57;19.10;;;9.50;;
3280;SDS011;1652;51.318;6.202;2023-05-23T05:14:25;12.13;;;9.87;;
3280;SDS011;1652;51.318;6.202;2023-05-23T05:16:53;10.40;;;9.20;;
3280;SDS011;1652;51.318;6.202;2023-05-23T05:19:20;15.67;;;10.37;;
3280;SDS011;1652;51.318;6.202;2023-05-23T05:21:47;12.10;;;8.77;;
3280;SDS011;1652;51.318;6.202;2023-05-23T05:24:14;14.40;;;9.57;;
3280;SDS011;1652;51.318;6.202;2023-05-23T05:26:41;11.33;;;8.53;;
3280;SDS011;1652;51.318;6.202;2023-05-23T05:29:08;12.20;;;6.80;;
3280;SDS011;1652;51.318;6.202;2023-05-23T05:31:36;11.10;;;7.70;;
3280;SDS011;1652;51.318;6.202;2023-05-23T05:34:03;14.57;;;7.37;;
3280;SDS011;1652;51.318;6.202;2023-05-23T05:36:30;10.23;;;7.70;;
3280;SDS011;1652;51.318;6.202;2023-05-23T05:38:57;7.27;;;6.23;;
3280;SDS011;1652;51.318;6.202;2023-05-23T05:41:25;9.30;;;7.30;;
3280;SDS011;1652;51.318;6.202;2023-05-23T05:43:52;9.60;;;7.47;;
3280;SDS011;1652;51.318;6.202;2023-05-23T05:46:19;9.60;;;7.27;;
3280;SDS011;1652;51.318;6.202;2023-05-23T05:48:46;11.13;;;6.67;;
3280;SDS011;1652;51.318;6.202;2023-05-23T05:51:13;9.60;;;7.77;;
3280;SDS011;1652;51.318;6.202;2023-05-23T05:53:40;8.67;;;6.80;;
3280;SDS011;1652;51.318;6.202;2023-05-23T05:56:06;15.10;;;7.47;;
3280;SDS011;1652;51.318;6.202;2023-05-23T05:58:34;12.50;;;8.60;;
3280;SDS011;1652;51.318;6.202;2023-05-23T06:01:02;23.03;;;8.87;;
3280;SDS011;1652;51.318;6.202;2023-05-23T06:03:31;15.67;;;9.30;;
3280;SDS011;1652;51.318;6.202;2023-05-23T06:05:59;12.90;;;8.17;;
3280;SDS011;1652;51.318;6.202;2023-05-23T06:08:26;13.33;;;8.30;;
3280;SDS011;1652;51.318;6.202;2023-05-23T06:10:53;10.07;;;9.07;;
3280;SDS011;1652;51.318;6.202;2023-05-23T06:13:22;13.00;;;8.57;;
3280;SDS011;1652;51.318;6.202;2023-05-23T06:15:48;16.80;;;9.00;;
3280;SDS011;1652;51.318;6.202;2023-05-23T06:18:15;15.30;;;8.60;;
3280;SDS011;1652;51.318;6.202;2023-05-23T06:20:42;12.20;;;8.63;;
3280;SDS011;1652;51.318;6.202;2023-05-23T06:23:09;18.53;;;9.53;;
3280;SDS011;1652;51.318;6.202;2023-05-23T06:25:36;16.47;;;8.63;;
3280;SDS011;1652;51.318;6.202;2023-05-23T06:28:03;16.43;;;9.37;;
3280;SDS011;1652;51.318;6.202;2023-05-23T06:30:30;18.77;;;10.37;;
3280;SDS011;1652;51.318;6.202;2023-05-23T06:32:57;16.40;;;8.77;;
3280;SDS011;1652;51.318;6.202;2023-05-23T06:35:24;21.73;;;9.90;;
3280;SDS011;1652;51.318;6.202;2023-05-23T06:37:51;22.20;;;10.83;;
3280;SDS011;1652;51.318;6.202;2023-05-23T06:40:18;14.93;;;9.47;;
3280;SDS011;1652;51.318;6.202;2023-05-23T06:42:45;16.50;;;9.80;;
3280;SDS011;1652;51.318;6.202;2023-05-23T06:45:12;17.60;;;10.27;;
3280;SDS011;1652;51.318;6.202;2023-05-23T06:47:41;19.47;;;9.80;;
3280;SDS011;1652;51.318;6.202;2023-05-23T06:50:13;20.17;;;9.73;;
3280;SDS011;1652;51.318;6.202;2023-05-23T06:52:40;15.57;;;9.77;;
3280;SDS011;1652;51.318;6.202;2023-05-23T06:55:08;19.63;;;8.63;;
3280;SDS011;1652;51.318;6.202;2023-05-23T06:57:35;18.20;;;8.70;;
3280;SDS011;1652;51.318;6.202;2023-05-23T07:00:02;18.10;;;8.83;;
3280;SDS011;1652;51.318;6.202;2023-05-23T07:02:29;16.43;;;8.70;;
3280;SDS011;1652;51.318;6.202;2023-05-23T07:04:56;14.93;;;7.77;;
3280;SDS011;1652;51.318;6.202;2023-05-23T07:07:23;11.97;;;7.33;;
3280;SDS011;1652;51.318;6.202;2023-05-23T07:09:50;14.43;;;7.97;;
3280;SDS011;1652;51.318;6.202;2023-05-23T07:12:17;11.43;;;7.87;;
3280;SDS011;1652;51.318;6.202;2023-05-23T07:14:44;11.80;;;8.50;;
3280;SDS011;1652;51.318;6.202;2023-05-23T07:17:11;14.53;;;7.90;;
3280;SDS011;1652;51.318;6.202;2023-05-23T07:19:38;18.50;;;8.07;;
3280;SDS011;1652;51.318;6.202;2023-05-23T07:22:05;17.40;;;9.23;;
3280;SDS011;1652;51.318;6.202;2023-05-23T07:24:32;19.80;;;8.70;;
3280;SDS011;1652;51.318;6.202;2023-05-23T07:26:59;17.77;;;8.23;;
3280;SDS011;1652;51.318;6.202;2023-05-23T07:29:26;21.37;;;9.57;;
3280;SDS011;1652;51.318;6.202;2023-05-23T07:31:53;21.77;;;9.60;;
3280;SDS011;1652;51.318;6.202;2023-05-23T07:34:20;15.23;;;8.30;;
3280;SDS011;1652;51.318;6.202;2023-05-23T07:36:47;15.97;;;8.47;;
3280;SDS011;1652;51.318;6.202;2023-05-23T07:39:15;19.83;;;8.10;;
3280;SDS011;1652;51.318;6.202;2023-05-23T07:41:47;15.20;;;7.67;;
3280;SDS011;1652;51.318;6.202;2023-05-23T07:44:17;12.20;;;7.07;;
3280;SDS011;1652;51.318;6.202;2023-05-23T07:46:46;15.00;;;8.57;;
3280;SDS011;1652;51.318;6.202;2023-05-23T07:49:13;25.10;;;9.07;;
3280;SDS011;1652;51.318;6.202;2023-05-23T07:51:40;21.10;;;8.40;;
3280;SDS011;1652;51.318;6.202;2023-05-23T07:54:08;11.50;;;6.53;;
3280;SDS011;1652;51.318;6.202;2023-05-23T07:56:35;17.80;;;6.67;;
3280;SDS011;1652;51.318;6.202;2023-05-23T07:59:03;10.20;;;6.57;;
3280;SDS011;1652;51.318;6.202;2023-05-23T08:01:30;14.07;;;6.23;;
3280;SDS011;1652;51.318;6.202;2023-05-23T08:03:57;13.57;;;6.40;;
3280;SDS011;1652;51.318;6.202;2023-05-23T08:06:24;12.43;;;6.30;;
3280;SDS011;1652;51.318;6.202;2023-05-23T08:08:51;19.77;;;6.23;;
3280;SDS011;1652;51.318;6.202;2023-05-23T08:11:18;10.80;;;5.87;;
3280;SDS011;1652;51.318;6.202;2023-05-23T08:13:45;14.80;;;5.93;;
3280;SDS011;1652;51.318;6.202;2023-05-23T08:16:12;11.90;;;5.87;;
3280;SDS011;1652;51.318;6.202;2023-05-23T08:18:39;16.67;;;5.30;;
3280;SDS011;1652;51.318;6.202;2023-05-23T08:21:06;12.13;;;6.30;;
3280;SDS011;1652;51.318;6.202;2023-05-23T08:23:33;11.00;;;5.27;;
3280;SDS011;1652;51.318;6.202;2023-05-23T08:26:00;12.37;;;6.70;;
3280;SDS011;1652;51.318;6.202;2023-05-23T08:28:27;16.67;;;5.97;;
3280;SDS011;1652;51.318;6.202;2023-05-23T08:30:54;12.90;;;5.80;;
3280;SDS011;1652;51.318;6.202;2023-05-23T08:33:22;12.87;;;7.13;;
3280;SDS011;1652;51.318;6.202;2023-05-23T08:35:49;16.90;;;6.70;;
3280;SDS011;1652;51.318;6.202;2023-05-23T08:38:16;11.23;;;6.37;;
3280;SDS011;1652;51.318;6.202;2023-05-23T08:40:50;19.67;;;6.10;;
3280;SDS011;1652;51.318;6.202;2023-05-23T08:43:20;10.60;;;6.20;;
3280;SDS011;1652;51.318;6.202;2023-05-23T08:45:47;9.70;;;5.57;;
3280;SDS011;1652;51.318;6.202;2023-05-23T08:48:17;16.37;;;8.27;;
3280;SDS011;1652;51.318;6.202;2023-05-23T08:50:46;14.50;;;5.57;;
3280;SDS011;1652;51.318;6.202;2023-05-23T08:53:16;10.37;;;5.70;;
3280;SDS011;1652;51.318;6.202;2023-05-23T08:55:46;9.03;;;5.80;;
3280;SDS011;1652;51.318;6.202;2023-05-23T08:58:17;10.53;;;5.60;;
3280;SDS011;1652;51.318;6.202;2023-05-23T09:00:48;9.27;;;5.60;;
3280;SDS011;1652;51.318;6.202;2023-05-23T09:03:16;15.70;;;5.50;;
3280;SDS011;1652;51.318;6.202;2023-05-23T09:05:44;10.90;;;5.40;;
3280;SDS011;1652;51.318;6.202;2023-05-23T09:08:12;16.17;;;6.10;;
3280;SDS011;1652;51.318;6.202;2023-05-23T09:10:39;6.80;;;4.67;;
3280;SDS011;1652;51.318;6.202;2023-05-23T09:13:06;7.20;;;4.97;;
3280;SDS011;1652;51.318;6.202;2023-05-23T09:15:35;6.47;;;4.53;;
3280;SDS011;1652;51.318;6.202;2023-05-23T09:18:03;5.73;;;4.47;;
3280;SDS011;1652;51.318;6.202;2023-05-23T09:20:30;6.27;;;4.90;;
3280;SDS011;1652;51.318;6.202;2023-05-23T09:22:57;8.00;;;5.10;;
3280;SDS011;1652;51.318;6.202;2023-05-23T09:25:26;6.97;;;5.10;;
3280;SDS011;1652;51.318;6.202;2023-05-23T09:27:53;8.20;;;4.57;;
3280;SDS011;1652;51.318;6.202;2023-05-23T09:30:21;6.70;;;4.73;;
3280;SDS011;1652;51.318;6.202;2023-05-23T09:32:58;6.10;;;4.53;;
3280;SDS011;1652;51.318;6.202;2023-05-23T09:35:31;11.30;;;4.80;;
3280;SDS011;1652;51.318;6.202;2023-05-23T09:37:58;9.87;;;5.73;;
3280;SDS011;1652;51.318;6.202;2023-05-23T09:40:28;5.67;;;4.43;;
3280;SDS011;1652;51.318;6.202;2023-05-23T09:43:03;13.20;;;5.40;;
3280;SDS011;1652;51.318;6.202;2023-05-23T09:45:31;14.53;;;6.10;;
3280;SDS011;1652;51.318;6.202;2023-05-23T09:47:59;16.43;;;5.60;;
3280;SDS011;1652;51.318;6.202;2023-05-23T09:50:31;10.63;;;4.97;;
3280;SDS011;1652;51.318;6.202;2023-05-23T09:53:03;13.83;;;5.77;;
3280;SDS011;1652;51.318;6.202;2023-05-23T09:55:33;11.63;;;5.77;;
3280;SDS011;1652;51.318;6.202;2023-05-23T09:58:00;10.00;;;4.93;;
3280;SDS011;1652;51.318;6.202;2023-05-23T10:00:29;9.23;;;5.47;;
3280;SDS011;1652;51.318;6.202;2023-05-23T10:03:01;14.40;;;5.90;;
3280;SDS011;1652;51.318;6.202;2023-05-23T10:05:48;9.70;;;4.97;;
3280;SDS011;1652;51.318;6.202;2023-05-23T10:08:27;13.73;;;5.63;;
3280;SDS011;1652;51.318;6.202;2023-05-23T10:13:39;10.97;;;4.60;;
3280;SDS011;1652;51.318;6.202;2023-05-23T10:16:33;5.33;;;4.90;;
3280;SDS011;1652;51.318;6.202;2023-05-23T10:19:22;8.40;;;5.17;;
3280;SDS011;1652;51.318;6.202;2023-05-23T10:22:00;8.87;;;5.03;;
3280;SDS011;1652;51.318;6.202;2023-05-23T10:24:29;8.43;;;5.10;;
3280;SDS011;1652;51.318;6.202;2023-05-23T10:26:57;10.73;;;7.93;;
3280;SDS011;1652;51.318;6.202;2023-05-23T10:29:24;7.00;;;4.40;;
3280;SDS011;1652;51.318;6.202;2023-05-23T10:31:51;9.03;;;4.30;;
3280;SDS011;1652;51.318;6.202;2023-05-23T10:37:03;4.60;;;4.10;;
3280;SDS011;1652;51.318;6.202;2023-05-23T10:42:32;3.20;;;3.00;;
3280;SDS011;1652;51.318;6.202;2023-05-23T10:45:17;7.00;;;5.17;;
3280;SDS011;1652;51.318;6.202;2023-05-23T10:47:46;6.67;;;4.07;;
3280;SDS011;1652;51.318;6.202;2023-05-23T10:50:15;5.53;;;3.17;;
3280;SDS011;1652;51.318;6.202;2023-05-23T10:53:04;4.90;;;3.23;;
3280;SDS011;1652;51.318;6.202;2023-05-23T10:55:32;10.10;;;3.63;;
3280;SDS011;1652;51.318;6.202;2023-05-23T10:58:19;6.57;;;3.50;;
3280;SDS011;1652;51.318;6.202;2023-05-23T11:00:52;4.50;;;2.60;;
3280;SDS011;1652;51.318;6.202;2023-05-23T11:09:00;6.03;;;3.63;;
3280;SDS011;1652;51.318;6.202;2023-05-23T11:11:52;3.17;;;2.67;;
3280;SDS011;1652;51.318;6.202;2023-05-23T11:14:30;15.37;;;10.73;;
3280;SDS011;1652;51.318;6.202;2023-05-23T11:16:58;6.10;;;3.17;;
3280;SDS011;1652;51.318;6.202;2023-05-23T11:19:38;10.50;;;6.60;;
3280;SDS011;1652;51.318;6.202;2023-05-23T11:22:08;6.47;;;4.10;;
3280;SDS011;1652;51.318;6.202;2023-05-23T11:27:25;4.07;;;2.60;;
3280;SDS011;1652;51.318;6.202;2023-05-23T11:32:32;7.57;;;3.13;;
3280;SDS011;1652;51.318;6.202;2023-05-23T11:35:00;9.87;;;2.50;;
3280;SDS011;1652;51.318;6.202;2023-05-23T11:37:29;10.43;;;2.67;;
3280;SDS011;1652;51.318;6.202;2023-05-23T11:39:57;13.73;;;3.57;;
3280;SDS011;1652;51.318;6.202;2023-05-23T11:42:24;10.27;;;5.80;;
3280;SDS011;1652;51.318;6.202;2023-05-23T11:44:51;7.40;;;2.73;;
3280;SDS011;1652;51.318;6.202;2023-05-23T11:47:18;7.90;;;3.23;;
3280;SDS011;1652;51.318;6.202;2023-05-23T11:49:46;19.80;;;3.83;;
3280;SDS011;1652;51.318;6.202;2023-05-23T11:52:14;6.40;;;2.77;;
3280;SDS011;1652;51.318;6.202;2023-05-23T11:54:41;9.13;;;4.80;;
3280;SDS011;1652;51.318;6.202;2023-05-23T11:57:11;7.30;;;2.77;;
3280;SDS011;1652;51.318;6.202;2023-05-23T11:59:39;9.20;;;2.80;;
3280;SDS011;1652;51.318;6.202;2023-05-23T12:02:06;10.83;;;5.93;;
3280;SDS011;1652;51.318;6.202;2023-05-23T12:04:34;12.73;;;3.83;;
3280;SDS011;1652;51.318;6.202;2023-05-23T12:07:05;6.60;;;3.10;;
3280;SDS011;1652;51.318;6.202;2023-05-23T12:09:40;9.57;;;4.60;;
3280;SDS011;1652;51.318;6.202;2023-05-23T12:12:08;9.30;;;3.90;;
3280;SDS011;1652;51.318;6.202;2023-05-23T12:14:36;8.57;;;5.40;;
3280;SDS011;1652;51.318;6.202;2023-05-23T12:17:10;13.13;;;3.57;;
3280;SDS011;1652;51.318;6.202;2023-05-23T12:19:38;5.63;;;2.87;;
3280;SDS011;1652;51.318;6.202;2023-05-23T12:22:10;7.33;;;4.27;;
3280;SDS011;1652;51.318;6.202;2023-05-23T12:24:43;9.57;;;3.40;;
3280;SDS011;1652;51.318;6.202;2023-05-23T12:27:12;8.17;;;3.43;;
3280;SDS011;1652;51.318;6.202;2023-05-23T12:29:39;14.80;;;2.80;;
3280;SDS011;1652;51.318;6.202;2023-05-23T12:32:06;9.00;;;2.90;;
3280;SDS011;1652;51.318;6.202;2023-05-23T12:34:32;13.07;;;4.83;;
3280;SDS011;1652;51.318;6.202;2023-05-23T12:37:00;14.47;;;3.40;;
3280;SDS011;1652;51.318;6.202;2023-05-23T12:39:33;11.87;;;2.90;;
3280;SDS011;1652;51.318;6.202;2023-05-23T12:42:08;10.13;;;3.30;;
3280;SDS011;1652;51.318;6.202;2023-05-23T12:44:35;5.67;;;2.80;;
3280;SDS011;1652;51.318;6.202;2023-05-23T12:47:02;5.73;;;3.00;;
3280;SDS011;1652;51.318;6.202;2023-05-23T12:49:29;12.60;;;3.20;;
3280;SDS011;1652;51.318;6.202;2023-05-23T12:51:56;5.43;;;2.80;;
3280;SDS011;1652;51.318;6.202;2023-05-23T12:54:23;9.93;;;3.40;;
3280;SDS011;1652;51.318;6.202;2023-05-23T12:56:50;6.53;;;3.30;;
3280;SDS011;1652;51.318;6.202;2023-05-23T12:59:18;8.53;;;3.10;;
3280;SDS011;1652;51.318;6.202;2023-05-23T13:01:45;5.80;;;2.70;;
3280;SDS011;1652;51.318;6.202;2023-05-23T13:04:12;8.70;;;3.40;;
3280;SDS011;1652;51.318;6.202;2023-05-23T13:06:39;13.30;;;4.20;;
3280;SDS011;1652;51.318;6.202;2023-05-23T13:09:06;7.60;;;2.63;;
3280;SDS011;1652;51.318;6.202;2023-05-23T13:11:34;7.07;;;3.17;;
3280;SDS011;1652;51.318;6.202;2023-05-23T13:14:01;8.20;;;3.27;;
3280;SDS011;1652;51.318;6.202;2023-05-23T13:16:29;10.03;;;3.13;;
3280;SDS011;1652;51.318;6.202;2023-05-23T13:18:56;8.20;;;3.40;;
3280;SDS011;1652;51.318;6.202;2023-05-23T13:21:23;10.90;;;4.20;;
3280;SDS011;1652;51.318;6.202;2023-05-23T13:23:50;13.37;;;3.80;;
3280;SDS011;1652;51.318;6.202;2023-05-23T13:26:17;12.30;;;4.90;;
3280;SDS011;1652;51.318;6.202;2023-05-23T13:28:44;16.50;;;4.13;;
3280;SDS011;1652;51.318;6.202;2023-05-23T13:31:11;16.07;;;8.13;;
3280;SDS011;1652;51.318;6.202;2023-05-23T13:33:38;11.37;;;4.77;;
3280;SDS011;1652;51.318;6.202;2023-05-23T13:36:05;7.33;;;2.90;;
3280;SDS011;1652;51.318;6.202;2023-05-23T13:38:32;8.20;;;4.00;;
3280;SDS011;1652;51.318;6.202;2023-05-23T13:40:59;3.33;;;2.87;;
3280;SDS011;1652;51.318;6.202;2023-05-23T13:43:26;10.90;;;3.87;;
3280;SDS011;1652;51.318;6.202;2023-05-23T13:45:53;10.47;;;3.33;;
3280;SDS011;1652;51.318;6.202;2023-05-23T13:48:20;10.57;;;3.00;;
3280;SDS011;1652;51.318;6.202;2023-05-23T13:50:47;9.63;;;3.40;;
3280;SDS011;1652;51.318;6.202;2023-05-23T13:53:14;8.83;;;2.70;;
3280;SDS011;1652;51.318;6.202;2023-05-23T13:55:42;5.30;;;3.17;;
3280;SDS011;1652;51.318;6.202;2023-05-23T13:58:10;12.37;;;3.13;;
3280;SDS011;1652;51.318;6.202;2023-05-23T14:00:38;10.43;;;2.73;;
3280;SDS011;1652;51.318;6.202;2023-05-23T14:03:06;5.83;;;2.63;;
3280;SDS011;1652;51.318;6.202;2023-05-23T14:05:34;8.50;;;3.33;;
3280;SDS011;1652;51.318;6.202;2023-05-23T14:08:02;17.20;;;9.77;;
3280;SDS011;1652;51.318;6.202;2023-05-23T14:10:29;13.97;;;3.10;;
3280;SDS011;1652;51.318;6.202;2023-05-23T14:12:58;9.90;;;3.33;;
3280;SDS011;1652;51.318;6.202;2023-05-23T14:15:25;20.33;;;3.67;;
3280;SDS011;1652;51.318;6.202;2023-05-23T14:17:53;6.80;;;3.53;;
3280;SDS011;1652;51.318;6.202;2023-05-23T14:20:21;8.00;;;3.70;;
3280;SDS011;1652;51.318;6.202;2023-05-23T14:22:49;9.03;;;3.40;;
3280;SDS011;1652;51.318;6.202;2023-05-23T14:25:17;11.87;;;4.13;;
3280;SDS011;1652;51.318;6.202;2023-05-23T14:27:44;12.53;;;2.67;;
3280;SDS011;1652;51.318;6.202;2023-05-23T14:30:11;7.07;;;2.80;;
3280;SDS011;1652;51.318;6.202;2023-05-23T14:32:38;9.30;;;2.90;;
3280;SDS011;1652;51.318;6.202;2023-05-23T14:35:06;15.57;;;3.60;;
3280;SDS011;1652;51.318;6.202;2023-05-23T14:37:34;9.40;;;3.10;;
3280;SDS011;1652;51.318;6.202;2023-05-23T14:40:05;9.07;;;3.07;;
3280;SDS011;1652;51.318;6.202;2023-05-23T14:42:33;10.17;;;3.30;;
3280;SDS011;1652;51.318;6.202;2023-05-23T14:45:00;7.50;;;3.33;;
3280;SDS011;1652;51.318;6.202;2023-05-23T14:47:27;4.47;;;3.00;;
3280;SDS011;1652;51.318;6.202;2023-05-23T14:49:54;17.03;;;7.70;;
3280;SDS011;1652;51.318;6.202;2023-05-23T14:52:21;6.90;;;3.67;;
3280;SDS011;1652;51.318;6.202;2023-05-23T14:54:48;13.03;;;3.00;;
3280;SDS011;1652;51.318;6.202;2023-05-23T14:57:14;19.83;;;3.87;;
3280;SDS011;1652;51.318;6.202;2023-05-23T14:59:41;10.07;;;2.87;;
3280;SDS011;1652;51.318;6.202;2023-05-23T15:02:08;8.53;;;2.73;;
3280;SDS011;1652;51.318;6.202;2023-05-23T15:04:35;16.33;;;3.60;;
3280;SDS011;1652;51.318;6.202;2023-05-23T15:07:03;14.07;;;6.97;;
3280;SDS011;1652;51.318;6.202;2023-05-23T15:09:30;8.40;;;3.60;;
3280;SDS011;1652;51.318;6.202;2023-05-23T15:11:57;6.13;;;2.60;;
3280;SDS011;1652;51.318;6.202;2023-05-23T15:14:24;9.43;;;3.07;;
3280;SDS011;1652;51.318;6.202;2023-05-23T15:16:54;16.50;;;2.70;;
3280;SDS011;1652;51.318;6.202;2023-05-23T15:19:22;10.70;;;3.10;;
3280;SDS011;1652;51.318;6.202;2023-05-23T15:21:49;7.70;;;3.80;;
3280;SDS011;1652;51.318;6.202;2023-05-23T15:24:17;7.23;;;3.00;;
3280;SDS011;1652;51.318;6.202;2023-05-23T15:26:44;3.20;;;2.60;;
3280;SDS011;1652;51.318;6.202;2023-05-23T15:29:11;4.90;;;2.13;;
3280;SDS011;1652;51.318;6.202;2023-05-23T15:31:39;7.70;;;4.63;;
3280;SDS011;1652;51.318;6.202;2023-05-23T15:34:06;13.03;;;3.97;;
3280;SDS011;1652;51.318;6.202;2023-05-23T15:36:33;13.13;;;3.37;;
3280;SDS011;1652;51.318;6.202;2023-05-23T15:39:02;8.77;;;2.90;;